Hauptseite
METAR-TAF:

METAR-TAF

Flughäfen :

Spangdahlem Air Base

Spangdahlem, Deutschland

Breite: 49-59N, Länge: 006-42E, Höhe: 365 m

Beobachtung

Neuester Wetterbericht von vor 32 Minuten, um 12:56 UTC
Windstille
Temperatur 23°C
Luftfeuchtigkeit 33%
Luftdruck 1014 hPa
Sichtweite 10 km oder mehr
Himmel klar

METAR: ETAD 151256Z 00000KT 9999 CLR 23/06 A2994 RMK AO2A SLP118 T02310064 $

Zeit: 15:28 (13:28 UTC)

Prognose

Neuester Wetterbericht von vor 1 Stunde und 21 Minuten, um 12:07 UTC
Gültige Prognose vom 15 um 12 UTC bis 16 um 18 UTC
Wind 9 kt aus Süd/Südwest
Sichtweite 10 km oder mehr
Himmel klar
Übergehend zu
vom 16 um 07 UTC bis 16 um 08 UTC
Wind 6 kt aus Ost/Südost
Sichtweite 10 km oder mehr
Durchbrochene Bewölkung in der Höhe von 20000 ft

TAF: ETAD 151207Z 1512/1618 21009KT 9999 SKC QNH2991INS BECMG 1607/1608 11006KT 9999 BKN200 QNH3005INS TX24/1514Z TN11/1606Z

Wetterbeobachtungen und Prognosen von mehr als 4000 Flughäfen (METAR und TAF Bericht).

Die verfügbaren Stationen werden durch gelbe und rote Markierungen auf der Karte dargestellt.

Führen Sie die Maus auf sie, um den Namen der Station zu sehen.

Darauf klicken, um die Beobachtung von Wetterbeobachtungen und Prognosen zu sehen.

Um die Karte zu ändern : klicken Sie auf den grünen Tasten mit einem schwarzen Kreuz Zum Vergrößern, auf den grünen Button mit einem Gedankenstrich zu verkleinern, oder auf die grünen Pfeile für benachbarte Karten.


METAR-TAF: